| Date | Time | Temp. (oF) | Dew Point (oF) | Rel. Hum. (%) | Press. (in.) | Wind Dir. | Wind Speed (mph) | Hourly Rainfall (in.) |
|
|---|---|---|---|---|---|---|---|---|---|
| 1 | 02/16 | 00:00 | 15 | -1 | 47 | 30.56 | NNE | 8 | 0.00 |
| 2 | 02/15 | 23:00 | 15 | -1 | 47 | 30.56 | NNW | 6 | 0.00 |
| 3 | 02/15 | 22:00 | 16 | -1 | 46 | 30.52 | NNE | 4 | 0.00 |
| 4 | 02/15 | 21:00 | 17 | -1 | 44 | 30.50 | N | 9 | 0.00 |
| 5 | 02/15 | 20:00 | 18 | 0 | 44 | 30.49 | N | 8 | 0.00 |
| 6 | 02/15 | 19:00 | 20 | 1 | 43 | 30.47 | NNW | 7 | 0.00 |
| 7 | 02/15 | 18:00 | 21 | 3 | 47 | 30.43 | N | 7 | 0.00 |
| 8 | 02/15 | 17:00 | 23 | 7 | 51 | 30.40 | NNE | 9 | 0.00 |
| 9 | 02/15 | 16:00 | 24 | 10 | 55 | 30.37 | NNE | 12 | 0.00 |
| 10 | 02/15 | 15:00 | 24 | 12 | 62 | 30.33 | NNE | 7 | 0.00 |
| 11 | 02/15 | 14:00 | 25 | 14 | 63 | 30.32 | NNE | 6 | 0.00 |
| 12 | 02/15 | 13:00 | 25 | 15 | 68 | 30.31 | NNE | 8 | 0.00 |
| 13 | 02/15 | 12:00 | 24 | 15 | 71 | 30.32 | N | 19 | 0.00 |
| 14 | 02/15 | 11:00 | 23 | 17 | 80 | 30.31 | NNE | 12 | 0.01 |
| 15 | 02/15 | 10:00 | 23 | 18 | 84 | 30.27 | NE | 6 | 0.00 |
| 16 | 02/15 | 09:00 | 22 | 20 | 92 | 30.26 | E | 16 | 0.00 |
| 17 | 02/15 | 08:00 | 22 | 22 | 100 | 30.24 | NNE | 8 | 0.00 |
| 18 | 02/15 | 07:00 | 24 | 23 | 100 | 30.18 | NE | 8 | 0.00 |
| 19 | 02/15 | 06:00 | 24 | 23 | 100 | 30.17 | N | 3 | 0.01 |
| 20 | 02/15 | 05:00 | 24 | 23 | 98 | 30.15 | NNE | 7 | 0.00 |
| 21 | 02/15 | 04:00 | 26 | 24 | 94 | 30.14 | NNE | 3 | 0.00 |
| 22 | 02/15 | 03:00 | 27 | 23 | 85 | 30.15 | NE | 4 | 0.00 |
| 23 | 02/15 | 02:00 | 28 | 19 | 71 | 30.15 | NE | 4 | 0.00 |
| 24 | 02/15 | 01:00 | 28 | 19 | 71 | 30.14 | NE | 5 | 0.00 |